• Join FlightAware (Why Join?)
  • Login
  • US Flag 
01:04PM EDT


 

Airport Tracker/Info


-or-


 

Live Flight TrackerFlight Track Log ✈ N578CM ✈ 03-May-2013 ✈ KAPA - KICT

Flight Track Log - Related Links

Times and Time Zones

All times are in EDT time to prevent confusion due to time zone crossing. See the N578CM flight status page for this flight to view local times or setup timezone preferences in your user account.

Time Position Orientation Groundspeed Altitude Reporting Facility
EDT Latitude Longitude Course Direction KTS MPH feet Rate Location/Type
05:16PM 39.6333 -104.8500 321° Northwest 182 209 8,000  Level Denver TRACON
05:16PM 39.6547 -104.8722 321° Northwest 197 227 8,000 1,860 Level Denver Center
05:17PM 39.7119 -104.8967 342° North 214 246 10,900 2,340 Climbing Denver Center
05:19PM 39.7175 -104.8261 84° East 220 253 12,900 2,100 Climbing Denver Center
05:20PM 39.7069 -104.7411 99° East 221 254 15,300 1,980 Climbing Denver Center
05:21PM 39.6983 -104.6589 98° East 231 266 17,000 1,380 Climbing Denver Center
05:22PM 39.6892 -104.5839 99° East 246 283 18,200 1,620 Climbing Denver Center
05:23PM 39.6761 -104.4742 99° East 255 293 20,400 1,860 Climbing Denver Center
05:24PM 39.6650 -104.3831 99° East 258 297 22,100 1,680 Climbing Denver Center
05:25PM 39.6522 -104.2836 99° East 262 302 23,900 1,500 Climbing Denver Center
05:26PM 39.6419 -104.1942 98° East 263 303 25,200 1,200 Climbing Denver Center
05:27PM 39.6297 -104.0950 99° East 275 316 26,400 1,140 Climbing Denver Center
05:28PM 39.6183 -104.0092 100° East 286 329 27,600 1,260 Climbing Denver Center
05:29PM 39.6011 -103.8653 99° East 302 348 29,100 1,020 Climbing Denver Center
05:30PM 39.5828 -103.7572 102° East 302 348 30,000 840 Climbing Denver Center
05:31PM 39.5481 -103.6269 109° East 322 371 31,200 1,080 Climbing Denver Center
05:32PM 39.5131 -103.4953 109° East 328 377 32,500 840 Climbing Denver Center
05:33PM 39.4833 -103.3819 109° East 327 376 33,000 300 Climbing Denver Center
05:35PM 39.4450 -103.2378 109° East 358 412 33,200 540 Climbing Denver Center
05:36PM 39.4050 -103.0931 110° East 363 418 34,300 900 Climbing Denver Center
05:37PM 39.3706 -102.9733 110° East 354 407 35,300 960 Climbing Denver Center
05:38PM 39.3336 -102.8372 109° East 342 394 36,500 780 Climbing Denver Center
05:39PM 39.2969 -102.7108 111° Southeast 335 386 37,000 240 Climbing Denver Center
05:40PM 39.2650 -102.5972 110° East 349 402 37,000  Level Denver Center
05:41PM 39.2253 -102.4578 110° East 369 425 37,000  Level Denver Center
05:42PM 39.1900 -102.3339 110° East 382 440 37,000  Level Denver Center
05:43PM 39.1489 -102.1917 110° East 381 438 37,000  Level Denver Center
05:44PM 39.1133 -102.0689 110° East 383 441 37,000  Level Denver Center
05:45PM 39.0722 -101.9261 110° East 381 438 37,000  Level Denver Center
05:46PM 39.0361 -101.8025 111° Southeast 385 443 37,000  Level Denver Center
05:47PM 38.9928 -101.6581 111° Southeast 388 447 37,000  Level Denver Center
05:48PM 38.9575 -101.5336 110° East 388 447 37,000  Level Denver Center
05:49PM 38.9144 -101.3900 111° Southeast 386 444 37,000  Level Denver Center
05:50PM 38.8775 -101.2697 111° Southeast 380 437 37,000  Level Denver Center
05:51PM 38.8422 -101.1478 110° East 381 438 37,000  Level Denver Center
05:52PM 38.7997 -101.0086 111° Southeast 373 429 37,000  Level Denver Center
05:53PM 38.7642 -100.8903 111° Southeast 374 430 37,000  Level Denver Center
05:54PM 38.7228 -100.7544 111° Southeast 368 423 37,000  Level Denver Center
05:55PM 38.6878 -100.6397 111° Southeast 362 417 37,000  Level Denver Center
05:57PM 38.6472 -100.5044 111° Southeast 363 418 37,000  Level Denver Center
05:58PM 38.6119 -100.3911 112° Southeast 359 413 37,000  Level Denver Center
05:59PM 38.5825 -100.2958 112° Southeast 359 413 37,000  Level Denver Center
06:00PM 38.5344 -100.1425 112° Southeast 363 418 37,000 -480 Level Denver Center
06:01PM 38.4933 -100.0086 111° Southeast 365 420 36,100 -960 Descending Denver Center
06:02PM 38.4561 -99.8897 112° Southeast 372 428 35,100 -600 Descending Denver Center
06:03PM 38.4164 -99.7703 113° Southeast 375 432 35,000 -60 Descending Kansas City Center
06:04PM 38.3797 -99.6550 112° Southeast 370 426 35,000 -540 Level Kansas City Center
06:05PM 38.3367 -99.5164 112° Southeast 374 430 33,900 -1,440 Descending Kansas City Center
06:06PM 38.3011 -99.4061 112° Southeast 383 441 32,100 -1,920 Descending Kansas City Center
06:07PM 38.2600 -99.2769 112° Southeast 391 450 30,000 -2,220 Descending Kansas City Center
06:08PM 38.2106 -99.1247 112° Southeast 390 449 27,600 -2,160 Descending Kansas City Center
06:09PM 38.1700 -99.0000 112° Southeast 383 441 25,600 -1,980 Descending Kansas City Center
06:10PM 38.1319 -98.8831 112° Southeast 365 420 23,600 -1,920 Descending Kansas City Center
06:11PM 38.0939 -98.7650 112° Southeast 362 417 21,700 -1,860 Descending Kansas City Center
06:12PM 38.0556 -98.6489 113° Southeast 359 413 19,800 -1,800 Descending Kansas City Center
06:13PM 38.0203 -98.5367 112° Southeast 349 402 18,000 -1,980 Descending Kansas City Center
06:14PM 37.9869 -98.4406 114° Southeast 331 381 16,400 -2,040 Descending Kansas City Center
06:14PM 37.9792 -98.4103 108° East 324 373 15,900 -1,500 Descending Kansas City Center
06:14PM 37.9694 -98.3875 118° Southeast 303 349 15,500 -1,560 Descending Kansas City Center
06:15PM 37.9481 -98.3150 110° East 297 342 14,300 -1,740 Descending Kansas City Center
06:15PM 37.9372 -98.2861 115° Southeast 288 331 13,800 -1,500 Descending Kansas City Center
06:16PM 37.9161 -98.2203 112° Southeast 294 338 12,800 -1,500 Descending Kansas City Center
06:16PM 37.9056 -98.1900 114° Southeast 289 333 12,300 -1,500 Descending Kansas City Center
06:17PM 37.8861 -98.1294 112° Southeast 283 326 11,300 -1,380 Descending Kansas City Center
06:18PM 37.8572 -98.0444 113° Southeast 268 308 9,900 -1,500 Descending Kansas City Center
06:19PM 37.8236 -97.9425 113° Southeast 268 308 8,200 -1,620 Descending Kansas City Center
06:19PM 37.8158 -97.9222 116° Southeast 270 311 7,800 -1,380 Descending Kansas City Center
06:20PM 37.7933 -97.8550 113° Southeast 276 318 6,800 -1,440 Descending Kansas City Center
06:20PM 37.7842 -97.8317 116° Southeast 279 321 6,400 -1,500 Descending Kansas City Center
06:21PM 37.7578 -97.7717 119° Southeast 272 313 5,300 -1,320 Descending Kansas City Center
06:22PM 37.7206 -97.6956 122° Southeast 257 296 4,000 -1,140 Descending Kansas City Center
06:23PM 37.6850 -97.6236 122° Southeast 244 281 3,000 -540 Descending Kansas City Center
06:24PM 37.6461 -97.5511 124° Southeast 220 253 3,000  Level Kansas City Center
06:25PM 37.5950 -97.5244 158° South 213 245 3,000  Level Kansas City Center
06:26PM 37.5572 -97.4803 137° Southeast 199 229 3,000 -360 Level Kansas City Center
06:27PM 37.5922 -97.4483 36° Northeast 143 165 2,300 -600 Descending Kansas City Center
06:28PM 37.6206 -97.4381 16° North 139 160 1,800 -420 Descending Kansas City Center
06:29PM 37.6481 -97.4239 22° Northeast 119 137 1,500 -300 Descending Kansas City Center